Time;durP1;ratioP1;P1;durP2;ratioP2;P2;SDS_P1;SDS_P2;PMS_P1;PMS_P2;Temp;Humidity;BMP_temperature;BMP_pressure;BME280_temperature;BME280_humidity;BME280_pressure;Samples;Min_cycle;Max_cycle;Signal;HPM_P1;HPM_P2
2023/11/11 00:00:47;;;;;;;16.50;9.32;;;;;;;5.15;60.23;99648.25;4999035;28;21248;-71
2023/11/11 00:03:14;;;;;;;20.33;10.43;;;;;;;4.96;60.99;99642.03;5000786;28;20042;-70
2023/11/11 00:05:41;;;;;;;18.20;8.90;;;;;;;5.16;60.67;99649.91;4998908;28;20029;-71
2023/11/11 00:08:07;;;;;;;22.83;9.70;;;;;;;5.13;60.87;99649.19;5000997;28;20052;-70
2023/11/11 00:10:33;;;;;;;23.42;10.13;;;;;;;5.19;60.89;99648.94;5002038;28;20044;-68
2023/11/11 00:12:59;;;;;;;23.73;11.05;;;;;;;4.96;61.50;99652.38;4998857;28;20037;-69
2023/11/11 00:15:26;;;;;;;22.50;10.75;;;;;;;5.02;61.12;99642.66;5000944;28;20049;-68
2023/11/11 00:17:52;;;;;;;24.88;11.35;;;;;;;4.96;61.31;99647.22;5005745;28;20592;-69
2023/11/11 00:20:18;;;;;;;18.85;9.80;;;;;;;4.92;61.59;99646.50;5007495;28;20042;-73
2023/11/11 00:22:45;;;;;;;22.15;9.57;;;;;;;4.99;61.22;99652.31;4997296;28;20072;-73
2023/11/11 00:25:12;;;;;;;21.42;9.40;;;;;;;5.23;60.78;99655.72;4998073;28;20095;-69
2023/11/11 00:27:42;;;;;;;27.73;10.63;;;;;;;5.17;60.59;99654.22;5010521;28;20037;-71
2023/11/11 00:30:09;;;;;;;20.08;8.98;;;;;;;5.14;60.55;99646.53;4999935;28;20064;-73
2023/11/11 00:32:34;;;;;;;23.20;10.68;;;;;;;5.08;60.82;99654.56;4983364;28;20057;-72
2023/11/11 00:35:01;;;;;;;25.98;9.93;;;;;;;4.97;61.10;99659.28;5008869;28;20030;-72
2023/11/11 00:37:29;;;;;;;21.00;10.35;;;;;;;5.16;60.92;99662.88;4998469;28;20453;-70
2023/11/11 00:39:57;;;;;;;26.25;10.88;;;;;;;5.15;60.86;99657.75;4989527;28;20040;-71
2023/11/11 00:42:22;;;;;;;23.08;12.10;;;;;;;5.03;61.23;99653.84;4990745;28;20073;-72
2023/11/11 00:44:48;;;;;;;21.25;10.88;;;;;;;5.10;60.73;99663.13;4995697;28;20053;-72
2023/11/11 00:47:14;;;;;;;21.80;11.13;;;;;;;4.95;61.17;99663.66;5002333;28;20500;-70
2023/11/11 00:49:41;;;;;;;22.17;11.63;;;;;;;5.10;60.90;99667.44;4988692;28;20530;-71
2023/11/11 00:52:07;;;;;;;19.65;9.80;;;;;;;4.89;61.49;99661.28;5000985;28;20424;-71
2023/11/11 00:54:33;;;;;;;19.98;11.18;;;;;;;5.11;60.87;99667.38;4996476;28;20148;-72
2023/11/11 00:57:00;;;;;;;24.60;12.15;;;;;;;5.15;60.61;99663.78;5000577;28;20564;-71
2023/11/11 00:59:26;;;;;;;25.23;9.75;;;;;;;5.17;60.22;99656.81;4998886;28;20712;-70
2023/11/11 01:01:52;;;;;;;24.52;10.60;;;;;;;4.88;61.16;99659.56;4988999;28;20352;-72
2023/11/11 01:04:17;;;;;;;23.65;10.77;;;;;;;5.08;61.16;99662.31;4986462;28;20060;-72
2023/11/11 01:06:43;;;;;;;24.90;11.68;;;;;;;4.91;61.28;99659.50;4997950;28;20124;-71
2023/11/11 01:09:13;;;;;;;25.63;11.20;;;;;;;5.08;61.21;99661.44;5009346;28;20072;-72
2023/11/11 01:11:41;;;;;;;24.20;11.18;;;;;;;5.08;60.75;99659.72;4995958;28;20033;-71
2023/11/11 01:14:07;;;;;;;25.75;11.25;;;;;;;5.11;60.38;99662.19;5003629;28;20136;-72
2023/11/11 01:16:32;;;;;;;24.00;11.07;;;;;;;5.18;60.11;99658.47;4997917;28;20180;-72
2023/11/11 01:18:58;;;;;;;23.40;10.18;;;;;;;5.14;60.30;99661.22;4998351;28;20422;-70
2023/11/11 01:21:27;;;;;;;23.45;11.18;;;;;;;5.17;60.19;99651.63;4999226;28;20036;-71
2023/11/11 01:23:52;;;;;;;22.95;10.13;;;;;;;5.16;60.05;99665.44;4995733;28;20121;-71
2023/11/11 01:26:19;;;;;;;19.25;9.80;;;;;;;5.11;59.87;99662.19;4998612;28;20128;-72
2023/11/11 01:28:44;;;;;;;24.65;10.63;;;;;;;5.11;60.19;99666.53;5001131;28;20496;-72
2023/11/11 01:31:10;;;;;;;24.75;11.35;;;;;;;5.15;59.75;99663.78;4992895;28;20049;-71
2023/11/11 01:33:35;;;;;;;24.70;12.48;;;;;;;5.18;59.71;99657.63;4998361;28;20137;-73
2023/11/11 01:36:04;;;;;;;26.77;10.75;;;;;;;5.12;59.31;99658.69;5004673;28;20038;-73
2023/11/11 01:38:30;;;;;;;27.15;10.50;;;;;;;5.06;59.63;99658.94;5008378;28;20431;-75
2023/11/11 01:40:56;;;;;;;22.88;9.90;;;;;;;4.64;60.55;99655.19;5011938;28;20026;-75
2023/11/11 01:43:23;;;;;;;22.35;10.63;;;;;;;4.86;59.89;99651.03;4995193;28;20057;-75
2023/11/11 01:45:54;;;;;;;21.65;9.65;;;;;;;4.86;59.67;99651.03;5017043;28;20028;-75
2023/11/11 01:48:20;;;;;;;18.92;9.40;;;;;;;4.82;59.55;99651.09;4993094;28;20049;-74
2023/11/11 01:50:47;;;;;;;20.38;9.38;;;;;;;4.80;59.62;99652.06;5001485;28;20025;-69
2023/11/11 01:53:15;;;;;;;21.52;9.25;;;;;;;4.68;59.90;99647.34;4995780;28;20188;-70
2023/11/11 01:55:42;;;;;;;25.25;11.27;;;;;;;4.72;59.92;99647.19;4999846;28;20041;-69
2023/11/11 01:58:09;;;;;;;21.17;9.93;;;;;;;4.59;60.11;99645.91;5000549;28;20053;-70
2023/11/11 02:00:38;;;;;;;24.85;10.63;;;;;;;4.65;59.97;99648.25;5006579;28;20042;-70
2023/11/11 02:03:04;;;;;;;20.33;9.45;;;;;;;4.64;59.91;99651.75;5003667;28;20037;-73
2023/11/11 02:05:30;;;;;;;21.25;10.73;;;;;;;4.66;59.98;99644.78;4994846;28;20083;-73
2023/11/11 02:08:01;;;;;;;19.95;9.15;;;;;;;4.68;59.59;99644.75;5002695;28;20523;-79
2023/11/11 02:10:28;;;;;;;18.45;9.27;;;;;;;4.62;59.59;99654.41;5018755;28;20102;-79
2023/11/11 02:12:54;;;;;;;16.83;9.25;;;;;;;4.60;59.57;99647.59;5026771;28;20049;-78
2023/11/11 02:15:22;;;;;;;17.27;8.15;;;;;;;4.45;60.21;99651.53;5013540;28;20022;-78
2023/11/11 02:17:48;;;;;;;21.85;10.07;;;;;;;4.50;59.96;99653.97;5016341;28;20041;-70
2023/11/11 02:20:16;;;;;;;17.92;8.63;;;;;;;4.51;59.96;99645.31;4994107;28;20053;-69
2023/11/11 02:22:44;;;;;;;21.90;9.35;;;;;;;4.37;60.17;99651.81;5005722;28;20037;-69
2023/11/11 02:25:10;;;;;;;17.13;9.60;;;;;;;4.35;60.44;99650.19;5002705;28;20084;-68
2023/11/11 02:27:36;;;;;;;21.70;9.35;;;;;;;4.39;60.08;99651.78;4998161;28;20448;-67
2023/11/11 02:30:03;;;;;;;18.10;9.82;;;;;;;4.39;60.09;99652.59;5003469;28;20041;-69
2023/11/11 02:32:32;;;;;;;20.58;10.40;;;;;;;4.27;60.85;99650.41;5000790;28;20058;-66
2023/11/11 02:35:00;;;;;;;21.07;10.27;;;;;;;4.12;61.07;99653.50;5005084;28;20021;-67
2023/11/11 02:37:25;;;;;;;18.98;10.85;;;;;;;4.36;60.37;99646.69;4980716;28;20628;-67
2023/11/11 02:39:51;;;;;;;16.23;8.85;;;;;;;4.34;60.33;99644.16;5004707;28;20026;-67
2023/11/11 02:42:18;;;;;;;20.50;10.00;;;;;;;4.21;60.75;99642.88;5002353;28;20050;-67
2023/11/11 02:44:44;;;;;;;20.67;9.23;;;;;;;4.18;60.89;99637.78;4996407;28;20053;-66
2023/11/11 02:47:09;;;;;;;22.05;8.85;;;;;;;4.30;60.17;99646.91;5007944;28;20145;-66
2023/11/11 02:49:35;;;;;;;23.40;9.40;;;;;;;4.28;60.14;99646.13;5001338;28;20060;-66
2023/11/11 02:52:04;;;;;;;20.02;9.25;;;;;;;4.13;60.63;99644.88;4999950;28;21391;-67
2023/11/11 02:54:30;;;;;;;18.67;8.93;;;;;;;4.22;60.56;99645.41;5001073;28;20068;-67
2023/11/11 02:56:59;;;;;;;25.23;9.57;;;;;;;4.16;60.66;99644.75;4996511;28;20057;-65
2023/11/11 02:59:26;;;;;;;22.25;10.20;;;;;;;4.21;60.36;99648.06;5000689;28;20040;-69
2023/11/11 03:01:51;;;;;;;26.83;10.68;;;;;;;3.91;61.33;99645.56;4997866;28;20026;-69
2023/11/11 03:04:17;;;;;;;17.02;8.77;;;;;;;4.11;60.93;99646.66;5000235;28;20195;-69
2023/11/11 03:06:43;;;;;;;16.48;8.40;;;;;;;4.17;60.19;99646.47;4997932;28;20033;-70
2023/11/11 03:09:09;;;;;;;20.25;9.00;;;;;;;4.25;60.22;99649.63;4998004;28;20048;-70
2023/11/11 03:11:36;;;;;;;20.25;9.15;;;;;;;3.92;60.90;99649.84;5000957;28;20030;-70
2023/11/11 03:14:03;;;;;;;17.65;7.97;;;;;;;4.16;60.57;99642.16;5001010;28;20159;-73
2023/11/11 03:16:36;;;;;;;21.77;7.70;;;;;;;4.21;60.09;99648.06;5005309;28;20526;-74
2023/11/11 03:19:06;;;;;;;19.70;8.60;;;;;;;4.22;60.35;99641.97;5007379;28;20852;-74
2023/11/11 03:21:32;;;;;;;18.90;8.30;;;;;;;4.22;60.04;99649.72;5001428;28;20064;-74
2023/11/11 03:23:58;;;;;;;14.75;7.25;;;;;;;4.20;59.94;99647.19;5004324;28;20037;-76
2023/11/11 03:26:24;;;;;;;20.25;8.32;;;;;;;4.22;60.18;99644.56;4987206;28;20570;-76
2023/11/11 03:28:50;;;;;;;16.10;7.43;;;;;;;4.17;60.26;99647.31;4992234;28;20507;-75
2023/11/11 03:31:17;;;;;;;15.15;7.95;;;;;;;4.12;60.21;99651.78;4994446;28;21704;-75
2023/11/11 03:33:45;;;;;;;16.08;7.80;;;;;;;4.15;60.30;99643.09;4998127;28;20512;-69
2023/11/11 03:36:10;;;;;;;16.65;7.55;;;;;;;4.17;60.47;99646.47;5002350;28;20125;-68
2023/11/11 03:38:38;;;;;;;19.38;7.13;;;;;;;3.94;60.82;99655.81;5000316;28;20708;-68
2023/11/11 03:41:05;;;;;;;14.02;6.55;;;;;;;3.76;61.54;99648.63;5005922;28;20033;-67
2023/11/11 03:43:31;;;;;;;11.27;6.05;;;;;;;3.99;60.89;99653.91;4991379;28;20041;-67
2023/11/11 03:45:56;;;;;;;13.05;5.30;;;;;;;3.81;61.67;99651.94;4998392;28;20044;-67
2023/11/11 03:48:24;;;;;;;16.15;6.47;;;;;;;4.01;60.99;99652.13;4988592;28;20446;-68
2023/11/11 03:50:49;;;;;;;13.50;6.38;;;;;;;3.86;61.35;99656.94;4996830;28;20040;-66
2023/11/11 03:53:15;;;;;;;11.40;4.75;;;;;;;3.97;60.91;99653.13;5005431;28;20046;-68
2023/11/11 03:55:41;;;;;;;16.30;4.85;;;;;;;3.92;61.21;99652.44;5000546;28;20033;-68
2023/11/11 03:58:06;;;;;;;11.75;5.15;;;;;;;3.78;61.78;99652.88;4998649;28;20053;-67
2023/11/11 04:00:32;;;;;;;8.02;4.03;;;;;;;3.87;61.56;99648.28;4988553;28;20449;-68
2023/11/11 04:02:57;;;;;;;11.40;4.70;;;;;;;4.02;60.58;99652.97;4993969;28;20056;-68
2023/11/11 04:05:23;;;;;;;9.38;4.05;;;;;;;3.95;60.97;99660.06;5003856;28;20041;-68
2023/11/11 04:07:49;;;;;;;9.60;4.18;;;;;;;4.09;60.68;99651.03;4996440;28;20574;-69
2023/11/11 04:10:17;;;;;;;7.97;3.15;;;;;;;4.11;60.49;99654.41;5003314;28;20069;-72
2023/11/11 04:12:45;;;;;;;7.38;4.07;;;;;;;4.05;60.47;99663.22;5002963;28;20061;-70
2023/11/11 04:15:13;;;;;;;9.57;3.67;;;;;;;4.05;60.42;99662.38;5004321;28;20472;-69
2023/11/11 04:17:43;;;;;;;5.95;2.67;;;;;;;4.04;60.76;99665.84;4999971;28;20049;-67
2023/11/11 04:20:12;;;;;;;6.82;2.55;;;;;;;4.08;60.45;99667.47;5004673;28;20540;-68
2023/11/11 04:22:38;;;;;;;7.30;2.50;;;;;;;4.12;60.55;99676.78;5002675;28;20044;-69
2023/11/11 04:25:06;;;;;;;5.40;2.17;;;;;;;4.12;60.30;99687.13;5001672;28;20038;-67
2023/11/11 04:27:32;;;;;;;5.57;2.45;;;;;;;4.11;60.62;99682.84;4999760;28;20412;-67
2023/11/11 04:29:58;;;;;;;4.07;1.83;;;;;;;4.17;60.70;99696.44;4996129;28;20034;-67
2023/11/11 04:32:27;;;;;;;6.18;1.83;;;;;;;4.00;60.75;99696.13;4997341;28;20050;-68
2023/11/11 04:34:53;;;;;;;8.07;1.30;;;;;;;4.17;60.50;99703.34;4999051;28;20033;-69
2023/11/11 04:37:18;;;;;;;3.92;1.33;;;;;;;4.16;60.86;99701.66;5005670;28;20048;-68
2023/11/11 04:39:46;;;;;;;5.28;1.52;;;;;;;4.18;60.64;99705.03;4996791;28;20060;-67
2023/11/11 04:42:16;;;;;;;5.97;1.98;;;;;;;4.13;60.64;99712.94;4998882;28;20088;-69
2023/11/11 04:44:44;;;;;;;5.57;1.60;;;;;;;4.09;60.92;99707.91;4998371;28;20022;-72
2023/11/11 04:47:10;;;;;;;5.43;1.42;;;;;;;4.06;60.86;99713.19;5003467;28;20171;-66
2023/11/11 04:49:39;;;;;;;6.13;2.05;;;;;;;3.78;61.73;99708.88;5003054;28;20040;-68
2023/11/11 04:52:06;;;;;;;4.65;1.35;;;;;;;4.01;61.65;99713.34;4998639;28;20573;-68
2023/11/11 04:54:34;;;;;;;2.22;1.33;;;;;;;3.93;61.52;99715.31;5000927;28;20036;-67
2023/11/11 04:56:59;;;;;;;6.00;1.30;;;;;;;4.23;60.69;99718.69;4992654;28;20037;-69
2023/11/11 04:59:31;;;;;;;3.47;1.48;;;;;;;4.20;60.61;99718.75;5002764;28;20034;-67
2023/11/11 05:01:56;;;;;;;2.15;0.82;;;;;;;4.00;61.20;99722.81;4997250;28;20032;-68
2023/11/11 05:04:22;;;;;;;8.10;1.88;;;;;;;4.22;60.59;99722.16;5002375;28;20088;-68
2023/11/11 05:06:48;;;;;;;5.43;1.00;;;;;;;4.05;60.89;99721.84;5002879;28;20025;-68
2023/11/11 05:09:15;;;;;;;3.47;1.17;;;;;;;4.04;60.74;99727.91;4999532;28;20337;-70
2023/11/11 05:11:41;;;;;;;3.05;1.00;;;;;;;4.08;60.67;99730.34;5002790;28;20103;-68
2023/11/11 05:14:10;;;;;;;3.05;0.93;;;;;;;4.11;60.49;99743.19;5000093;28;20041;-67
2023/11/11 05:16:39;;;;;;;5.00;1.08;;;;;;;4.05;60.49;99739.94;5008979;28;20041;-67
2023/11/11 05:19:08;;;;;;;1.05;0.50;;;;;;;4.04;60.33;99746.00;5001103;28;20033;-67
2023/11/11 05:21:34;;;;;;;7.38;0.98;;;;;;;4.00;60.69;99742.66;5004467;28;20073;-67
2023/11/11 05:24:00;;;;;;;2.92;0.93;;;;;;;4.12;60.27;99746.59;4999730;28;20543;-69
2023/11/11 05:26:27;;;;;;;9.32;1.30;;;;;;;4.12;59.90;99755.22;5002290;28;20504;-72
2023/11/11 05:28:55;;;;;;;2.58;0.93;;;;;;;3.93;60.86;99757.50;5001908;28;20404;-72
2023/11/11 05:31:28;;;;;;;6.28;0.75;;;;;;;3.68;61.54;99772.06;4985689;28;20036;-71
2023/11/11 05:33:55;;;;;;;8.15;0.70;;;;;;;3.65;61.68;99767.84;5008666;28;20050;-73
2023/11/11 05:36:21;;;;;;;6.05;0.80;;;;;;;4.02;60.70;99767.56;5011825;28;20041;-74
2023/11/11 05:38:49;;;;;;;2.17;0.80;;;;;;;4.08;60.97;99763.13;4989257;28;20054;-75
2023/11/11 05:41:15;;;;;;;3.25;0.57;;;;;;;4.21;60.25;99773.03;5004573;28;20092;-75
2023/11/11 05:43:43;;;;;;;3.53;0.57;;;;;;;4.28;60.22;99770.28;5009461;28;20805;-73
2023/11/11 05:46:08;;;;;;;4.20;0.40;;;;;;;4.15;60.42;99770.63;5007323;28;20519;-69
2023/11/11 05:48:37;;;;;;;5.55;0.30;;;;;;;3.85;61.53;99767.25;5002229;28;20050;-74
2023/11/11 05:51:07;;;;;;;2.45;0.32;;;;;;;4.04;60.85;99769.28;5010082;28;20112;-68
2023/11/11 05:53:33;;;;;;;0.70;0.20;;;;;;;4.11;60.53;99766.44;5003813;28;20037;-69
2023/11/11 05:55:58;;;;;;;3.10;0.20;;;;;;;4.28;59.83;99776.28;5000583;28;20120;-66
2023/11/11 05:58:25;;;;;;;1.90;0.30;;;;;;;4.33;60.04;99776.97;5000806;28;20048;-66
2023/11/11 06:00:53;;;;;;;2.55;0.20;;;;;;;4.17;60.64;99778.34;5002166;28;20118;-67
2023/11/11 06:03:19;;;;;;;4.28;0.30;;;;;;;4.26;60.29;99780.66;5001949;28;20616;-67
2023/11/11 06:05:47;;;;;;;3.60;0.20;;;;;;;4.35;60.33;99790.72;5003077;28;20025;-66
2023/11/11 06:08:12;;;;;;;2.70;0.25;;;;;;;4.48;59.95;99796.34;5009154;28;20047;-67
2023/11/11 06:10:40;;;;;;;3.75;0.20;;;;;;;4.59;59.78;99789.09;5004540;28;20488;-67
2023/11/11 06:13:05;;;;;;;3.72;0.10;;;;;;;4.39;60.29;99794.91;4998852;28;20133;-68
2023/11/11 06:15:37;;;;;;;0.50;0.10;;;;;;;4.35;60.31;99795.88;5004720;28;20125;-67
2023/11/11 06:18:07;;;;;;;3.00;0.10;;;;;;;4.54;59.98;99806.50;5000933;28;20056;-68
2023/11/11 06:20:33;;;;;;;0.52;0.10;;;;;;;4.65;59.98;99803.56;5004162;28;20034;-67
2023/11/11 06:22:59;;;;;;;0.50;0.10;;;;;;;4.68;59.63;99807.81;4997109;28;20045;-67
2023/11/11 06:25:25;;;;;;;0.63;0.10;;;;;;;4.47;60.22;99806.75;4999865;28;20036;-65
2023/11/11 06:27:58;;;;;;;0.70;0.10;;;;;;;4.51;60.18;99810.94;5001132;28;20060;-67
2023/11/11 06:30:25;;;;;;;2.60;0.10;;;;;;;4.63;59.74;99820.88;5001351;28;20124;-66
2023/11/11 06:32:51;;;;;;;0.68;0.10;;;;;;;4.44;60.57;99818.03;4993381;28;20401;-67
2023/11/11 06:35:18;;;;;;;2.15;0.20;;;;;;;4.51;59.83;99816.94;5000416;28;20030;-66
2023/11/11 06:37:43;;;;;;;1.23;0.10;;;;;;;4.39;60.85;99815.59;4994892;28;20041;-66
2023/11/11 06:40:09;;;;;;;1.92;0.20;;;;;;;4.62;59.95;99811.44;5007073;28;20408;-66
2023/11/11 06:42:36;;;;;;;0.82;0.10;;;;;;;4.70;59.86;99817.22;5002380;28;20436;-66
2023/11/11 06:45:03;;;;;;;4.20;0.30;;;;;;;4.74;59.76;99818.78;4990700;28;20129;-68
2023/11/11 06:47:28;;;;;;;0.17;0.10;;;;;;;4.63;60.08;99826.06;4992350;28;20116;-69
2023/11/11 06:49:54;;;;;;;4.40;0.10;;;;;;;4.58;60.13;99830.53;4997423;28;20117;-69
2023/11/11 06:52:20;;;;;;;2.38;0.20;;;;;;;4.45;60.74;99827.47;4996179;28;20518;-67
2023/11/11 06:54:46;;;;;;;0.63;0.10;;;;;;;4.66;60.12;99831.16;5005418;28;20527;-65
2023/11/11 06:57:12;;;;;;;1.23;0.20;;;;;;;4.52;60.17;99826.41;4998156;28;20037;-67
2023/11/11 06:59:38;;;;;;;4.05;0.55;;;;;;;4.45;60.85;99829.22;4999316;28;20033;-66
2023/11/11 07:02:04;;;;;;;1.83;0.22;;;;;;;4.55;60.63;99833.22;4994846;28;20714;-66
2023/11/11 07:04:29;;;;;;;5.43;0.25;;;;;;;4.64;59.93;99828.59;4998427;28;20164;-64
2023/11/11 07:06:56;;;;;;;3.20;0.10;;;;;;;4.68;59.77;99829.34;5000259;28;20045;-65
2023/11/11 07:09:21;;;;;;;1.13;0.00;;;;;;;4.62;59.80;99830.38;5001213;28;20053;-65
2023/11/11 07:11:50;;;;;;;3.95;0.10;;;;;;;4.62;59.76;99834.72;4996407;28;20038;-64
2023/11/11 07:14:17;;;;;;;1.00;0.10;;;;;;;4.61;59.81;99839.06;4994326;28;20037;-66
2023/11/11 07:16:43;;;;;;;1.08;0.20;;;;;;;4.55;60.01;99841.84;4996166;28;20268;-65
2023/11/11 07:19:09;;;;;;;1.10;0.38;;;;;;;4.14;61.45;99859.47;4997961;28;20045;-66
2023/11/11 07:21:34;;;;;;;2.15;0.20;;;;;;;4.31;60.85;99855.53;4983596;28;20033;-64
2023/11/11 07:24:00;;;;;;;3.20;0.40;;;;;;;4.08;61.96;99859.66;4991949;28;20045;-64
2023/11/11 07:26:25;;;;;;;6.50;0.52;;;;;;;4.11;62.18;99863.88;4996811;28;20145;-65
2023/11/11 07:28:53;;;;;;;1.95;0.10;;;;;;;3.65;62.87;99862.59;4994610;28;20326;-65
2023/11/11 07:31:19;;;;;;;2.40;0.47;;;;;;;3.83;63.33;99858.63;4989688;28;20073;-68
2023/11/11 07:33:46;;;;;;;0.95;0.10;;;;;;;3.65;63.32;99870.34;4996396;28;20201;-66
2023/11/11 07:36:12;;;;;;;0.77;0.10;;;;;;;3.23;63.97;99862.81;4994558;28;20524;-67
2023/11/11 07:38:39;;;;;;;0.30;0.00;;;;;;;3.29;64.41;99867.84;4992393;28;20713;-68
2023/11/11 07:41:08;;;;;;;0.28;0.00;;;;;;;3.85;62.29;99870.66;4990826;28;20034;-68
2023/11/11 07:43:35;;;;;;;0.20;0.00;;;;;;;3.79;62.43;99874.25;5007887;28;20396;-68
2023/11/11 07:46:05;;;;;;;0.77;0.00;;;;;;;3.77;62.01;99881.19;4995473;28;20128;-67
2023/11/11 07:48:32;;;;;;;0.38;0.05;;;;;;;3.95;61.68;99873.81;4992883;28;20077;-67
2023/11/11 07:50:57;;;;;;;0.30;0.00;;;;;;;3.92;61.43;99882.50;4993465;28;20026;-68
2023/11/11 07:53:24;;;;;;;0.55;0.38;;;;;;;3.82;61.76;99883.66;4997185;28;20052;-65
2023/11/11 07:55:49;;;;;;;0.32;0.00;;;;;;;3.97;61.25;99890.13;4995237;28;20193;-68
2023/11/11 07:58:15;;;;;;;0.00;0.00;;;;;;;3.69;61.37;99892.63;4991097;28;20045;-69
2023/11/11 08:00:41;;;;;;;0.15;0.00;;;;;;;4.05;61.18;99889.91;5010233;28;20034;-68
2023/11/11 08:03:07;;;;;;;0.00;0.00;;;;;;;4.13;61.04;99893.13;4991029;28;20495;-67
2023/11/11 08:05:32;;;;;;;0.30;0.00;;;;;;;4.14;60.56;99881.88;4995964;28;20053;-68
2023/11/11 08:07:59;;;;;;;0.65;0.00;;;;;;;4.37;59.89;99892.41;4991221;28;20882;-67
2023/11/11 08:10:25;;;;;;;0.90;0.38;;;;;;;4.54;59.54;99889.31;4991161;28;20037;-68
2023/11/11 08:12:52;;;;;;;0.15;0.00;;;;;;;4.27;60.19;99898.75;5000562;28;20037;-70
2023/11/11 08:15:19;;;;;;;0.57;0.00;;;;;;;4.59;60.24;99894.34;4990083;28;20029;-65
2023/11/11 08:17:45;;;;;;;1.10;0.25;;;;;;;4.43;60.55;99902.59;4993987;28;20041;-68
2023/11/11 08:20:15;;;;;;;4.78;0.20;;;;;;;4.44;60.39;99911.19;4984803;28;20046;-67
2023/11/11 08:22:44;;;;;;;0.75;0.10;;;;;;;4.56;60.20;99902.19;4998958;28;20045;-65
2023/11/11 08:25:13;;;;;;;0.30;0.10;;;;;;;4.41;60.80;99912.13;4999019;28;20044;-64
2023/11/11 08:27:42;;;;;;;0.38;0.00;;;;;;;4.50;60.77;99912.72;4974365;28;20470;-65
2023/11/11 08:30:11;;;;;;;0.25;0.05;;;;;;;4.25;61.35;99908.28;4992080;28;20042;-63
2023/11/11 08:32:43;;;;;;;0.45;0.13;;;;;;;4.41;61.55;99906.13;4991449;28;20071;-67
2023/11/11 08:35:15;;;;;;;0.10;0.00;;;;;;;4.47;61.45;99912.84;4991172;28;20041;-66
2023/11/11 08:37:44;;;;;;;0.45;0.10;;;;;;;4.00;62.71;99913.31;4976343;28;20396;-65
2023/11/11 08:40:11;;;;;;;2.45;0.13;;;;;;;4.26;62.35;99919.50;4994510;28;20037;-66
2023/11/11 08:42:39;;;;;;;1.02;0.10;;;;;;;4.59;61.42;99915.91;4991074;28;20041;-67
2023/11/11 08:45:06;;;;;;;1.10;0.10;;;;;;;4.79;61.17;99917.88;4991339;28;20061;-67
2023/11/11 08:47:31;;;;;;;0.70;0.15;;;;;;;4.25;62.64;99921.22;4992516;28;20638;-68
2023/11/11 08:49:57;;;;;;;0.98;0.20;;;;;;;4.83;61.11;99922.06;5001542;28;20025;-65
2023/11/11 08:52:22;;;;;;;1.65;0.17;;;;;;;4.75;61.58;99929.22;5004772;28;20051;-66
2023/11/11 08:54:50;;;;;;;2.03;0.20;;;;;;;4.59;61.90;99930.59;5000474;28;20495;-65
2023/11/11 08:57:16;;;;;;;2.30;0.20;;;;;;;4.93;60.95;99927.00;4995882;28;20034;-66
2023/11/11 08:59:41;;;;;;;0.88;0.20;;;;;;;4.96;60.94;99922.53;5000684;28;20503;-66
2023/11/11 09:02:07;;;;;;;4.35;0.60;;;;;;;5.12;60.72;99924.66;4995454;28;21071;-67
2023/11/11 09:04:32;;;;;;;1.60;0.10;;;;;;;4.88;61.05;99932.31;4994442;28;20083;-69
2023/11/11 09:06:59;;;;;;;0.32;0.10;;;;;;;5.37;60.30;99932.44;4996790;28;20040;-67
2023/11/11 09:09:25;;;;;;;1.88;0.10;;;;;;;5.48;60.31;99935.56;4991227;28;20574;-67
2023/11/11 09:11:50;;;;;;;1.48;0.20;;;;;;;5.01;60.66;99932.75;4998980;28;20076;-66
2023/11/11 09:14:16;;;;;;;2.58;0.75;;;;;;;5.74;59.86;99936.41;4992543;28;20176;-67
2023/11/11 09:16:41;;;;;;;2.85;0.20;;;;;;;5.81;59.14;99937.88;4995167;28;20040;-66
2023/11/11 09:19:07;;;;;;;1.10;0.68;;;;;;;5.23;59.37;99945.88;4991581;28;20472;-66
2023/11/11 09:21:33;;;;;;;1.23;0.20;;;;;;;5.45;59.57;99946.00;4997803;28;20455;-65
2023/11/11 09:23:58;;;;;;;0.40;0.08;;;;;;;5.41;58.91;99947.00;4996901;28;20046;-66
2023/11/11 09:26:24;;;;;;;2.38;0.17;;;;;;;5.41;58.66;99949.59;4993600;28;20029;-65
2023/11/11 09:28:50;;;;;;;1.30;0.10;;;;;;;5.45;59.38;99948.59;4998973;28;20587;-66
2023/11/11 09:31:16;;;;;;;1.30;0.15;;;;;;;5.64;58.53;99946.25;4992796;28;20034;-66
2023/11/11 09:33:42;;;;;;;0.73;0.10;;;;;;;5.37;58.55;99948.00;4996141;28;20100;-66
2023/11/11 09:36:08;;;;;;;0.47;0.05;;;;;;;5.38;58.63;99944.53;4994000;28;20546;-66
2023/11/11 09:38:34;;;;;;;1.27;0.10;;;;;;;5.97;57.25;99949.41;4996957;28;20041;-66
2023/11/11 09:41:00;;;;;;;1.10;0.10;;;;;;;5.66;57.98;99949.63;4997383;28;20386;-64
2023/11/11 09:43:25;;;;;;;1.40;0.05;;;;;;;5.62;57.70;99951.47;4996913;28;20046;-65
2023/11/11 09:45:54;;;;;;;1.52;0.82;;;;;;;5.56;57.40;99950.84;4995783;28;20123;-67
2023/11/11 09:48:19;;;;;;;1.42;0.43;;;;;;;6.07;57.17;99958.53;4993125;28;20553;-66
2023/11/11 09:50:45;;;;;;;0.68;0.10;;;;;;;6.21;57.04;99952.00;4996645;28;20040;-64
2023/11/11 09:53:12;;;;;;;3.13;0.10;;;;;;;6.11;56.75;99961.03;4991102;28;20192;-67
2023/11/11 09:55:39;;;;;;;2.20;0.10;;;;;;;5.91;56.76;99959.16;4996979;28;20034;-63
2023/11/11 09:58:06;;;;;;;2.25;0.10;;;;;;;6.17;56.08;99964.28;4995151;28;20041;-65
2023/11/11 10:00:32;;;;;;;3.03;0.10;;;;;;;5.73;58.33;99965.84;4999618;28;20173;-69
2023/11/11 10:02:58;;;;;;;4.38;0.00;;;;;;;5.80;57.74;99972.50;4984734;28;21235;-67
2023/11/11 10:05:24;;;;;;;0.88;0.10;;;;;;;5.59;58.09;99969.75;5006126;28;20029;-65
2023/11/11 10:07:49;;;;;;;2.55;0.10;;;;;;;6.45;57.32;99965.88;4998094;28;20520;-69
2023/11/11 10:10:15;;;;;;;1.63;0.10;;;;;;;6.59;56.25;99971.38;4997985;28;20172;-69
2023/11/11 10:12:41;;;;;;;0.10;0.00;;;;;;;6.40;55.04;99968.63;5004398;28;20050;-66
2023/11/11 10:15:10;;;;;;;0.10;0.00;;;;;;;7.10;55.83;99969.41;4998383;28;20123;-65
2023/11/11 10:17:38;;;;;;;2.00;0.10;;;;;;;7.39;54.02;99970.84;4995741;28;20081;-64
2023/11/11 10:20:15;;;;;;;2.85;0.20;;;;;;;7.24;53.81;99967.09;5003232;28;20129;-63
2023/11/11 10:22:46;;;;;;;0.63;0.05;;;;;;;8.25;54.74;99971.53;5000214;28;20081;-66
2023/11/11 10:25:19;;;;;;;0.20;0.00;;;;;;;8.07;51.86;99976.66;4992332;28;20034;-65
2023/11/11 10:27:53;;;;;;;0.17;0.05;;;;;;;7.66;51.42;99981.88;4990437;28;20088;-64
2023/11/11 10:30:24;;;;;;;0.20;0.00;;;;;;;7.99;51.62;99991.75;4999534;28;20038;-63
2023/11/11 10:32:51;;;;;;;0.08;0.00;;;;;;;7.80;52.46;99986.53;4996609;28;20607;-65
2023/11/11 10:35:18;;;;;;;0.25;0.00;;;;;;;8.32;51.24;99992.03;4998841;28;20090;-64
2023/11/11 10:37:44;;;;;;;0.10;0.00;;;;;;;7.29;53.07;99990.34;4997033;28;20049;-66
2023/11/11 10:40:11;;;;;;;1.75;0.00;;;;;;;7.67;54.18;99987.94;4997655;28;20061;-66
2023/11/11 10:42:36;;;;;;;1.58;0.00;;;;;;;8.72;51.52;99986.81;4996615;28;20037;-63
2023/11/11 10:45:03;;;;;;;1.85;0.00;;;;;;;8.19;50.55;99996.09;5002523;28;20467;-65
2023/11/11 10:47:30;;;;;;;0.28;0.03;;;;;;;8.46;50.04;99996.63;4992323;28;20041;-66
2023/11/11 10:49:59;;;;;;;0.52;0.30;;;;;;;8.26;52.78;100004.50;5000096;28;20038;-66
2023/11/11 10:52:24;;;;;;;0.57;0.20;;;;;;;8.22;52.68;99995.97;4978514;28;21315;-64
2023/11/11 10:54:58;;;;;;;1.98;0.20;;;;;;;8.19;53.27;99997.88;5013794;28;20038;-65
2023/11/11 10:57:25;;;;;;;0.60;0.10;;;;;;;7.90;53.46;99999.97;4996279;28;20050;-66
2023/11/11 10:59:51;;;;;;;0.40;0.03;;;;;;;6.87;55.76;99993.72;5007987;28;20056;-64
2023/11/11 11:02:18;;;;;;;2.88;0.00;;;;;;;6.89;56.48;99997.94;5005336;28;20049;-65
2023/11/11 11:04:52;;;;;;;0.30;0.00;;;;;;;6.61;57.48;100002.50;5007240;28;20037;-66
2023/11/11 11:07:24;;;;;;;0.17;0.00;;;;;;;6.19;58.37;99998.75;5011178;28;20041;-66
2023/11/11 11:09:55;;;;;;;3.92;0.10;;;;;;;6.25;58.42;100008.09;4999012;28;20022;-66
2023/11/11 11:13:02;;;;;;;0.68;0.30;;;;;;;6.03;58.75;100010.59;5005469;28;20564;-67
2023/11/11 11:15:28;;;;;;;2.15;0.20;;;;;;;6.35;58.76;100016.41;4986057;28;20638;-65
2023/11/11 11:17:55;;;;;;;0.52;0.10;;;;;;;5.82;58.49;100007.84;4995598;28;20100;-66
2023/11/11 11:20:25;;;;;;;1.80;0.35;;;;;;;6.03;58.96;100014.03;4998635;28;20049;-66
2023/11/11 11:22:59;;;;;;;1.10;0.30;;;;;;;5.94;59.40;100016.94;4992726;28;20066;-66
2023/11/11 11:25:40;;;;;;;4.38;0.10;;;;;;;5.95;59.16;100016.06;4997589;28;20555;-65
2023/11/11 11:28:12;;;;;;;0.40;0.20;;;;;;;5.61;59.88;100008.56;4996734;28;20053;-66
2023/11/11 11:30:45;;;;;;;1.15;0.25;;;;;;;5.31;60.60;100011.25;4997462;28;20042;-66
2023/11/11 11:33:12;;;;;;;2.08;0.20;;;;;;;5.39;60.40;100018.75;4994539;28;20053;-63
2023/11/11 11:35:38;;;;;;;1.48;0.32;;;;;;;5.28;61.00;100011.34;4998701;28;20098;-64